createdAt,value
2019-01-24T00:01:05.345Z,95542.19
2019-01-24T00:03:34.466Z,95528.27
2019-01-24T00:06:05.677Z,95535.02
2019-01-24T00:08:34.792Z,95537.17
2019-01-24T00:11:04.384Z,95546.62
2019-01-24T00:13:33.500Z,95544.30
2019-01-24T00:16:02.596Z,95547.23
2019-01-24T00:18:31.781Z,95545.93
2019-01-24T00:21:00.870Z,95547.73
2019-01-24T00:23:29.983Z,95558.41
2019-01-24T00:25:59.087Z,95562.86
2019-01-24T00:28:28.207Z,95561.34
2019-01-24T00:30:57.286Z,95570.83
2019-01-24T00:33:26.368Z,95575.75
2019-01-24T00:35:55.498Z,95578.67
2019-01-24T00:38:24.578Z,95582.83
2019-01-24T00:40:53.680Z,95581.20
2019-01-24T00:43:22.772Z,95588.17
2019-01-24T00:45:51.880Z,95590.89
2019-01-24T00:48:20.968Z,95592.09
2019-01-24T00:50:50.077Z,95594.81
2019-01-24T00:53:19.162Z,95594.41
2019-01-24T00:55:48.289Z,95598.75
2019-01-24T00:58:17.410Z,95605.88
2019-01-24T01:00:46.612Z,95604.07
2019-01-24T01:03:15.714Z,95604.09
2019-01-24T01:05:44.836Z,95606.30
2019-01-24T01:08:13.924Z,95617.29
2019-01-24T01:10:43.029Z,95608.20
2019-01-24T01:13:12.112Z,95613.75
2019-01-24T01:15:41.222Z,95616.58
2019-01-24T01:18:10.297Z,95618.48
2019-01-24T01:20:39.409Z,95619.59
2019-01-24T01:23:08.488Z,95619.00
2019-01-24T01:25:37.610Z,95619.30
2019-01-24T01:28:06.721Z,95623.72
2019-01-24T01:30:35.865Z,95625.03
2019-01-24T01:33:05.379Z,95625.66
2019-01-24T01:35:34.520Z,95628.03
2019-01-24T01:38:03.710Z,95625.55
2019-01-24T01:40:32.813Z,95630.37
2019-01-24T01:43:01.901Z,95627.23
2019-01-24T01:45:31.022Z,95636.62
2019-01-24T01:48:00.105Z,95636.03
2019-01-24T01:50:29.220Z,95640.38
2019-01-24T01:52:59.036Z,95651.54
2019-01-24T01:55:28.173Z,95652.05
2019-01-24T01:57:57.312Z,95655.04
2019-01-24T02:00:26.641Z,95655.64
2019-01-24T02:02:55.744Z,95665.11
2019-01-24T02:05:24.837Z,95667.73
2019-01-24T02:07:53.947Z,95673.50
2019-01-24T02:10:24.009Z,95671.78
2019-01-24T02:12:53.114Z,95676.02
2019-01-24T02:15:22.716Z,95673.40
2019-01-24T02:17:51.840Z,95667.42
2019-01-24T02:20:22.429Z,95671.92
2019-01-24T02:22:51.893Z,95669.73
2019-01-24T02:25:20.985Z,95670.88
2019-01-24T02:27:50.096Z,95676.94
2019-01-24T02:30:24.460Z,95675.86
2019-01-24T02:32:53.549Z,95674.19
2019-01-24T02:35:22.641Z,95690.38
2019-01-24T02:37:51.772Z,95693.41
2019-01-24T02:40:21.077Z,95686.08
2019-01-24T02:42:50.208Z,95688.81
2019-01-24T02:45:20.771Z,95690.31
2019-01-24T02:47:49.884Z,95694.90
2019-01-24T02:50:20.103Z,95694.87
2019-01-24T02:52:49.421Z,95699.95
2019-01-24T02:55:18.524Z,95690.47
2019-01-24T02:57:47.653Z,95696.55
2019-01-24T03:00:18.999Z,95696.14
2019-01-24T03:02:48.235Z,95694.41
2019-01-24T03:05:18.785Z,95695.62
2019-01-24T03:07:47.943Z,95700.05
2019-01-24T03:10:17.046Z,95699.33
2019-01-24T03:12:46.181Z,95697.89
2019-01-24T03:15:16.941Z,95700.11
2019-01-24T03:17:48.453Z,95696.12
2019-01-24T03:20:17.592Z,95700.91
2019-01-24T03:22:47.153Z,95703.57
2019-01-24T03:25:16.652Z,95705.97
2019-01-24T03:27:45.775Z,95706.19
2019-01-24T03:30:17.142Z,95711.24
2019-01-24T03:32:46.214Z,95704.53
2019-01-24T03:35:17.681Z,95712.36
2019-01-24T03:37:46.763Z,95712.70
2019-01-24T03:40:17.293Z,95707.34
2019-01-24T03:42:46.377Z,95714.55
2019-01-24T03:45:16.149Z,95714.61
2019-01-24T03:47:45.282Z,95715.91
2019-01-24T03:50:18.876Z,95723.77
2019-01-24T03:52:48.129Z,95722.46
2019-01-24T03:55:19.787Z,95719.84
2019-01-24T03:57:48.936Z,95727.11
2019-01-24T04:00:24.993Z,95729.95
2019-01-24T04:02:54.184Z,95733.74
2019-01-24T04:05:23.612Z,95737.41
2019-01-24T04:07:52.692Z,95735.85
2019-01-24T04:10:22.420Z,95735.09
2019-01-24T04:12:51.542Z,95735.63
2019-01-24T04:15:22.536Z,95745.27
2019-01-24T04:17:51.621Z,95750.59
2019-01-24T04:20:20.706Z,95749.45
2019-01-24T04:22:49.811Z,95747.06
2019-01-24T04:25:18.962Z,95748.16
2019-01-24T04:27:48.030Z,95747.39
2019-01-24T04:30:19.042Z,95747.55
2019-01-24T04:32:48.162Z,95744.11
2019-01-24T04:35:20.082Z,95748.55
2019-01-24T04:37:48.319Z,95753.75
2019-01-24T04:40:18.126Z,95743.36
2019-01-24T04:42:47.241Z,95757.19
2019-01-24T04:45:17.124Z,95758.77
2019-01-24T04:47:46.220Z,95756.83
2019-01-24T04:50:16.625Z,95753.44
2019-01-24T04:52:45.712Z,95755.83
2019-01-24T04:55:16.530Z,95755.02
2019-01-24T04:57:45.802Z,95754.41
2019-01-24T05:00:26.051Z,95757.55
2019-01-24T05:02:55.493Z,95758.22
2019-01-24T05:05:27.834Z,95757.53
2019-01-24T05:07:55.427Z,95758.72
2019-01-24T05:10:24.512Z,95756.69
2019-01-24T05:12:53.616Z,95768.78
2019-01-24T05:15:22.707Z,95766.98
2019-01-24T05:17:51.813Z,95764.09
2019-01-24T05:20:20.915Z,95763.23
2019-01-24T05:22:50.006Z,95764.44
2019-01-24T05:25:19.192Z,95768.02
2019-01-24T05:27:48.282Z,95772.85
2019-01-24T05:30:22.967Z,95771.31
2019-01-24T05:32:52.143Z,95777.63
2019-01-24T05:35:21.256Z,95782.69
2019-01-24T05:37:50.356Z,95786.80
2019-01-24T05:40:19.472Z,95790.00
2019-01-24T05:42:48.563Z,95790.64
2019-01-24T05:45:17.887Z,95792.81
2019-01-24T05:47:47.045Z,95793.13
2019-01-24T05:50:16.171Z,95800.44
2019-01-24T05:52:45.261Z,95801.13
2019-01-24T05:55:14.521Z,95801.34
2019-01-24T05:57:43.629Z,95808.06
2019-01-24T06:00:17.319Z,95809.11
2019-01-24T06:02:46.421Z,95814.84
2019-01-24T06:05:15.837Z,95816.70
2019-01-24T06:07:44.919Z,95827.00
2019-01-24T06:10:14.720Z,95823.70
2019-01-24T06:12:43.820Z,95833.77
2019-01-24T06:15:14.305Z,95836.11
2019-01-24T06:17:43.400Z,95838.18
2019-01-24T06:20:12.610Z,95837.45
2019-01-24T06:22:41.699Z,95836.01
2019-01-24T06:25:11.046Z,95848.08
2019-01-24T06:27:40.141Z,95848.92
2019-01-24T06:30:13.473Z,95852.47
2019-01-24T06:32:42.565Z,95858.05
2019-01-24T06:35:11.776Z,95867.45
2019-01-24T06:37:40.860Z,95868.56
2019-01-24T06:40:10.537Z,95867.25
2019-01-24T06:42:39.624Z,95868.72
2019-01-24T06:45:14.596Z,95869.29
2019-01-24T06:47:43.692Z,95874.29
2019-01-24T06:50:13.599Z,95869.39
2019-01-24T06:52:42.724Z,95867.06
2019-01-24T06:55:14.026Z,95863.98
2019-01-24T06:57:43.148Z,95858.52
2019-01-24T07:00:14.812Z,95865.52
2019-01-24T07:02:43.918Z,95864.19
2019-01-24T07:05:13.302Z,95866.27
2019-01-24T07:07:42.422Z,95867.19
2019-01-24T07:10:13.761Z,95868.19
2019-01-24T07:12:42.992Z,95874.55
2019-01-24T07:15:14.407Z,95871.20
2019-01-24T07:17:43.513Z,95873.84
2019-01-24T07:20:13.240Z,95875.36
2019-01-24T07:22:42.359Z,95869.89
2019-01-24T07:25:17.230Z,95882.75
2019-01-24T07:27:46.337Z,95881.70
2019-01-24T07:30:16.125Z,95885.55
2019-01-24T07:32:45.235Z,95882.78
2019-01-24T07:35:15.472Z,95888.61
2019-01-24T07:37:44.602Z,95898.41
2019-01-24T07:40:15.088Z,95898.97
2019-01-24T07:42:44.233Z,95894.98
2019-01-24T07:45:15.694Z,95902.92
2019-01-24T07:47:44.780Z,95908.97
2019-01-24T07:50:14.041Z,95901.42
2019-01-24T07:52:43.126Z,95904.59
2019-01-24T07:55:12.709Z,95908.63
2019-01-24T07:57:41.932Z,95915.70
2019-01-24T08:00:14.637Z,95921.28
2019-01-24T08:02:43.723Z,95920.70
2019-01-24T08:05:13.263Z,95923.55
2019-01-24T08:07:42.447Z,95925.95
2019-01-24T08:10:13.313Z,95934.33
2019-01-24T08:12:42.500Z,95934.88
2019-01-24T08:15:12.988Z,95939.56
2019-01-24T08:17:42.804Z,95941.34
2019-01-24T08:20:14.638Z,95945.57
2019-01-24T08:22:43.824Z,95944.86
2019-01-24T08:25:14.671Z,95946.59
2019-01-24T08:27:43.756Z,95949.86
2019-01-24T08:30:20.953Z,95949.99
2019-01-24T08:32:50.045Z,95951.05
2019-01-24T08:35:19.245Z,95953.34
2019-01-24T08:37:48.328Z,95954.48
2019-01-24T08:40:17.976Z,95959.48
2019-01-24T08:42:47.279Z,95966.14
2019-01-24T08:45:16.704Z,95967.50
2019-01-24T08:47:45.813Z,95974.56
2019-01-24T08:50:16.861Z,95975.63
2019-01-24T08:52:45.953Z,95981.55
2019-01-24T08:55:21.164Z,95981.65
2019-01-24T08:57:50.265Z,95986.78
2019-01-24T09:00:20.112Z,95981.52
2019-01-24T09:02:49.221Z,95985.27
2019-01-24T09:05:18.525Z,95982.98
2019-01-24T09:07:47.621Z,95986.64
2019-01-24T09:10:19.807Z,95990.20
2019-01-24T09:12:48.897Z,95987.09
2019-01-24T09:15:17.998Z,95993.25
2019-01-24T09:17:47.098Z,95998.07
2019-01-24T09:20:16.800Z,96005.95
2019-01-24T09:22:46.692Z,96013.67
2019-01-24T09:25:15.789Z,96016.14
2019-01-24T09:27:44.916Z,96013.06
2019-01-24T09:30:16.665Z,96026.44
2019-01-24T09:32:45.766Z,96030.06
2019-01-24T09:35:15.304Z,96030.06
2019-01-24T09:37:45.017Z,96031.19
2019-01-24T09:40:15.027Z,96035.30
2019-01-24T09:42:44.149Z,96034.11
2019-01-24T09:45:15.855Z,96036.55
2019-01-24T09:47:45.062Z,96042.37
2019-01-24T09:50:16.870Z,96046.16
2019-01-24T09:52:46.177Z,96039.02
2019-01-24T09:55:15.263Z,96049.31
2019-01-24T09:57:44.374Z,96055.67
2019-01-24T10:00:18.998Z,96049.92
2019-01-24T10:02:48.204Z,96052.45
2019-01-24T10:05:18.016Z,96059.25
2019-01-24T10:07:47.127Z,96062.09
2019-01-24T10:10:20.673Z,96069.69
2019-01-24T10:12:49.889Z,96069.04
2019-01-24T10:15:19.536Z,96071.46
2019-01-24T10:17:48.639Z,96073.22
2019-01-24T10:20:18.926Z,96066.23
2019-01-24T10:22:48.154Z,96068.40
2019-01-24T10:25:20.014Z,96067.89
2019-01-24T10:27:49.118Z,96056.47
2019-01-24T10:30:19.541Z,96055.50
2019-01-24T10:32:49.059Z,96050.50
2019-01-24T10:35:18.561Z,96055.19
2019-01-24T10:37:47.668Z,96049.47
2019-01-24T10:40:24.522Z,96044.34
2019-01-24T10:42:53.637Z,96041.39
2019-01-24T10:45:22.954Z,96039.14
2019-01-24T10:47:52.595Z,96037.52
2019-01-24T10:50:22.706Z,96044.97
2019-01-24T10:52:51.812Z,96043.52
2019-01-24T10:55:22.703Z,96050.75
2019-01-24T10:57:52.299Z,96049.39
2019-01-24T11:00:31.365Z,96047.54
2019-01-24T11:03:00.684Z,96050.11
2019-01-24T11:05:29.771Z,96049.06
2019-01-24T11:07:58.986Z,96042.41
2019-01-24T11:10:28.066Z,96033.38
2019-01-24T11:12:57.177Z,96031.80
2019-01-24T11:15:26.481Z,96042.36
2019-01-24T11:17:55.604Z,96045.80
2019-01-24T11:20:24.692Z,96040.56
2019-01-24T11:22:53.804Z,96037.94
2019-01-24T11:25:23.558Z,96045.84
2019-01-24T11:27:52.671Z,96045.03
2019-01-24T11:30:24.239Z,96038.90
2019-01-24T11:32:53.340Z,96044.78
2019-01-24T11:35:24.846Z,96038.63
2019-01-24T11:37:54.232Z,96037.94
2019-01-24T11:40:23.329Z,96038.34
2019-01-24T11:42:52.429Z,96042.36
2019-01-24T11:45:23.246Z,96039.81
2019-01-24T11:47:52.352Z,96041.31
2019-01-24T11:50:21.442Z,96030.81
2019-01-24T11:52:50.549Z,96039.73
2019-01-24T11:55:20.438Z,96038.77
2019-01-24T11:57:49.528Z,96034.55
2019-01-24T12:00:21.093Z,96037.73
2019-01-24T12:02:50.181Z,96038.87
2019-01-24T12:05:19.292Z,96035.52
2019-01-24T12:07:48.386Z,96047.19
2019-01-24T12:10:19.414Z,96046.12
2019-01-24T12:12:48.570Z,96043.63
2019-01-24T12:15:19.176Z,96039.30
2019-01-24T12:17:48.271Z,96041.79
2019-01-24T12:20:18.986Z,96043.19
2019-01-24T12:22:48.068Z,96044.87
2019-01-24T12:25:17.175Z,96048.66
2019-01-24T12:27:46.263Z,96057.16
2019-01-24T12:30:18.353Z,96054.14
2019-01-24T12:32:47.446Z,96054.09
2019-01-24T12:35:16.585Z,96058.47
2019-01-24T12:37:45.680Z,96057.48
2019-01-24T12:40:14.801Z,96053.58
2019-01-24T12:42:43.915Z,96064.69
2019-01-24T12:45:15.721Z,96057.98
2019-01-24T12:47:44.826Z,96059.66
2019-01-24T12:50:14.904Z,96069.88
2019-01-24T12:52:44.002Z,96074.70
2019-01-24T12:55:13.569Z,96075.98
2019-01-24T12:57:42.652Z,96078.11
2019-01-24T13:00:17.706Z,96073.12
2019-01-24T13:02:46.788Z,96078.61
2019-01-24T13:05:15.973Z,96077.61
2019-01-24T13:07:45.068Z,96079.44
2019-01-24T13:10:16.349Z,96075.67
2019-01-24T13:12:45.521Z,96074.44
2019-01-24T13:15:15.550Z,96074.16
2019-01-24T13:17:44.656Z,96069.29
2019-01-24T13:20:15.101Z,96076.30
2019-01-24T13:22:44.204Z,96079.70
2019-01-24T13:25:18.722Z,96076.22
2019-01-24T13:27:47.835Z,96072.36
2019-01-24T13:30:19.301Z,96078.17
2019-01-24T13:32:48.420Z,96087.86
2019-01-24T13:35:17.644Z,96081.20
2019-01-24T13:37:46.774Z,96073.53
2019-01-24T13:40:20.828Z,96071.39
2019-01-24T13:42:49.927Z,96062.92
2019-01-24T13:45:21.339Z,96047.38
2019-01-24T13:47:50.550Z,96050.13
2019-01-24T13:50:20.134Z,96062.35
2019-01-24T13:52:49.241Z,96070.01
2019-01-24T13:55:18.379Z,96081.67
2019-01-24T13:57:47.460Z,96086.72
2019-01-24T14:00:19.043Z,96074.88
2019-01-24T14:02:49.792Z,96055.13
2019-01-24T14:05:19.152Z,96050.55
2019-01-24T14:07:48.216Z,96051.47
2019-01-24T14:10:17.308Z,96050.91
2019-01-24T14:12:46.407Z,96045.37
2019-01-24T14:15:16.695Z,96054.34
2019-01-24T14:17:45.802Z,96048.53
2019-01-24T14:20:16.920Z,96053.47
2019-01-24T14:22:46.027Z,96063.98
2019-01-24T14:25:17.017Z,96079.23
2019-01-24T14:27:46.195Z,96081.90
2019-01-24T14:30:18.464Z,96090.47
2019-01-24T14:32:48.035Z,96092.02
2019-01-24T14:35:17.275Z,96094.52
2019-01-24T14:37:46.354Z,96090.22
2019-01-24T14:40:15.575Z,96100.50
2019-01-24T14:42:44.676Z,96094.72
2019-01-24T14:45:16.027Z,96092.39
2019-01-24T14:47:45.120Z,96096.44
2019-01-24T14:50:19.837Z,96098.69
2019-01-24T14:52:48.926Z,96111.68
2019-01-24T14:55:18.038Z,96118.64
2019-01-24T14:57:47.125Z,96122.73
2019-01-24T15:00:23.140Z,96129.37
2019-01-24T15:02:52.252Z,96126.86
2019-01-24T15:05:21.371Z,96138.37
2019-01-24T15:07:50.461Z,96145.00
2019-01-24T15:10:19.591Z,96143.75
2019-01-24T15:12:48.682Z,96151.47
2019-01-24T15:15:17.801Z,96150.20
2019-01-24T15:17:46.897Z,96151.15
2019-01-24T15:20:16.333Z,96153.22
2019-01-24T15:22:45.428Z,96155.04
2019-01-24T15:25:14.693Z,96151.22
2019-01-24T15:27:44.567Z,96147.81
2019-01-24T15:30:16.740Z,96157.27
2019-01-24T15:32:45.825Z,96155.23
2019-01-24T15:35:15.041Z,96153.36
2019-01-24T15:37:44.169Z,96151.30
2019-01-24T15:40:16.161Z,96150.13
2019-01-24T15:42:45.245Z,96153.88
2019-01-24T15:45:14.764Z,96158.42
2019-01-24T15:47:43.858Z,96165.69
2019-01-24T15:50:14.693Z,96163.84
2019-01-24T15:52:43.773Z,96166.04
2019-01-24T15:55:13.385Z,96170.61
2019-01-24T15:57:42.522Z,96174.14
2019-01-24T16:00:29.538Z,96178.08
2019-01-24T16:02:58.877Z,96182.64
2019-01-24T16:05:27.988Z,96184.52
2019-01-24T16:08:01.596Z,96184.56
2019-01-24T16:10:29.213Z,96189.27
2019-01-24T16:12:58.306Z,96191.94
2019-01-24T16:15:29.803Z,96194.69
2019-01-24T16:17:58.893Z,96200.73
2019-01-24T16:20:28.754Z,96210.48
2019-01-24T16:22:57.844Z,96212.84
2019-01-24T16:25:29.680Z,96214.75
2019-01-24T16:27:59.106Z,96213.93
2019-01-24T16:30:29.812Z,96212.68
2019-01-24T16:32:59.122Z,96220.80
2019-01-24T16:35:28.302Z,96222.11
2019-01-24T16:37:57.424Z,96230.12
2019-01-24T16:40:27.122Z,96230.38
2019-01-24T16:42:56.232Z,96229.77
2019-01-24T16:45:26.993Z,96236.23
2019-01-24T16:47:56.505Z,96246.10
2019-01-24T16:50:26.048Z,96247.12
2019-01-24T16:52:55.163Z,96248.72
2019-01-24T16:55:24.469Z,96242.96
2019-01-24T16:57:54.368Z,96250.30
2019-01-24T17:00:28.952Z,96244.53
2019-01-24T17:02:58.066Z,96247.41
2019-01-24T17:05:27.160Z,96253.23
2019-01-24T17:07:57.334Z,96254.86
2019-01-24T17:10:26.448Z,96247.73
2019-01-24T17:12:55.565Z,96252.70
2019-01-24T17:15:24.664Z,96258.16
2019-01-24T17:17:53.777Z,96257.05
2019-01-24T17:20:24.775Z,96253.34
2019-01-24T17:22:53.974Z,96256.55
2019-01-24T17:25:24.666Z,96262.47
2019-01-24T17:27:53.757Z,96262.47
2019-01-24T17:30:24.628Z,96265.46
2019-01-24T17:32:53.833Z,96274.66
2019-01-24T17:35:23.154Z,96270.12
2019-01-24T17:37:52.269Z,96271.31
2019-01-24T17:40:23.504Z,96271.69
2019-01-24T17:42:52.656Z,96267.64
2019-01-24T17:45:21.775Z,96273.59
2019-01-24T17:47:50.860Z,96274.31
2019-01-24T17:50:19.972Z,96281.89
2019-01-24T17:52:49.061Z,96282.06
2019-01-24T17:55:35.892Z,96284.59
2019-01-24T17:58:08.645Z,96288.06
2019-01-24T18:00:40.328Z,96285.41
2019-01-24T18:03:09.469Z,96288.23
2019-01-24T18:05:38.621Z,96292.01
2019-01-24T18:08:08.137Z,96296.91
2019-01-24T18:10:37.421Z,96293.27
2019-01-24T18:13:06.519Z,96297.56
2019-01-24T18:15:35.659Z,96298.16
2019-01-24T18:18:06.341Z,96299.55
2019-01-24T18:20:35.624Z,96298.12
2019-01-24T18:23:05.575Z,96297.13
2019-01-24T18:25:34.694Z,96298.50
2019-01-24T18:28:04.002Z,96296.26
2019-01-24T18:30:33.154Z,96295.13
2019-01-24T18:33:02.263Z,96301.23
2019-01-24T18:35:31.386Z,96306.73
2019-01-24T18:38:00.516Z,96310.88
2019-01-24T18:40:29.815Z,96317.34
2019-01-24T18:42:59.165Z,96321.15
2019-01-24T18:45:33.906Z,96319.29
2019-01-24T18:48:04.433Z,96323.58
2019-01-24T18:50:33.546Z,96334.13
2019-01-24T18:53:02.660Z,96328.84
2019-01-24T18:55:31.777Z,96333.27
2019-01-24T18:58:00.894Z,96347.89
2019-01-24T19:00:35.731Z,96350.63
2019-01-24T19:03:06.607Z,96353.95
2019-01-24T19:05:36.981Z,96361.16
2019-01-24T19:08:06.708Z,96354.77
2019-01-24T19:10:35.846Z,96356.62
2019-01-24T19:13:06.561Z,96356.62
2019-01-24T19:15:35.644Z,96365.09
2019-01-24T19:18:05.787Z,96367.38
2019-01-24T19:20:35.273Z,96364.98
2019-01-24T19:23:05.085Z,96372.63
2019-01-24T19:25:34.393Z,96370.01
2019-01-24T19:28:03.509Z,96374.31
2019-01-24T19:30:32.894Z,96376.61
2019-01-24T19:33:02.104Z,96379.87
2019-01-24T19:35:31.203Z,96385.12
2019-01-24T19:38:00.444Z,96390.73
2019-01-24T19:40:29.587Z,96394.55
2019-01-24T19:42:58.695Z,96396.28
2019-01-24T19:45:27.794Z,96392.89
2019-01-24T19:47:56.914Z,96391.02
2019-01-24T19:50:28.332Z,96394.13
2019-01-24T19:52:58.816Z,96394.28
2019-01-24T19:55:32.292Z,96393.96
2019-01-24T19:58:01.592Z,96395.77
2019-01-24T20:00:31.989Z,96394.98
2019-01-24T20:03:02.791Z,96390.85
2019-01-24T20:05:33.238Z,96393.30
2019-01-24T20:08:02.433Z,96396.45
2019-01-24T20:10:31.790Z,96390.88
2019-01-24T20:13:01.726Z,96388.27
2019-01-24T20:15:31.589Z,96385.12
2019-01-24T20:18:00.697Z,96383.81
2019-01-24T20:20:30.283Z,96381.20
2019-01-24T20:22:59.537Z,96384.57
2019-01-24T20:25:30.625Z,96382.83
2019-01-24T20:28:00.308Z,96386.31
2019-01-24T20:30:31.027Z,96393.95
2019-01-24T20:33:01.611Z,96391.38
2019-01-24T20:35:44.629Z,96390.09
2019-01-24T20:38:13.767Z,96398.22
2019-01-24T20:40:43.687Z,96398.20
2019-01-24T20:43:15.923Z,96389.86
2019-01-24T20:45:46.066Z,96398.59
2019-01-24T20:48:15.187Z,96394.83
2019-01-24T20:50:44.419Z,96394.98
2019-01-24T20:53:13.650Z,96395.11
2019-01-24T20:55:42.754Z,96404.65
2019-01-24T20:58:12.071Z,96403.45
2019-01-24T21:00:41.808Z,96399.52
2019-01-24T21:03:12.379Z,96394.23
2019-01-24T21:05:41.747Z,96397.88
2019-01-24T21:08:11.051Z,96398.44
2019-01-24T21:10:41.548Z,96400.28
2019-01-24T21:13:11.029Z,96398.56
2019-01-24T21:15:40.262Z,96398.20
2019-01-24T21:18:09.360Z,96399.02
2019-01-24T21:20:38.956Z,96397.99
2019-01-24T21:23:08.445Z,96398.38
2019-01-24T21:25:38.084Z,96402.27
2019-01-24T21:28:07.368Z,96400.27
2019-01-24T21:30:37.403Z,96397.50
2019-01-24T21:33:07.317Z,96405.47
2019-01-24T21:35:36.539Z,96400.19
2019-01-24T21:38:07.818Z,96400.19
2019-01-24T21:40:36.975Z,96411.63
2019-01-24T21:43:06.476Z,96414.95
2019-01-24T21:45:35.806Z,96421.59
2019-01-24T21:48:05.680Z,96415.79
2019-01-24T21:50:34.809Z,96416.83
2019-01-24T21:53:04.305Z,96413.58
2019-01-24T21:55:33.417Z,96408.96
2019-01-24T21:58:02.502Z,96413.70
2019-01-24T22:00:31.949Z,96413.91
2019-01-24T22:03:01.032Z,96416.65
2019-01-24T22:05:30.252Z,96415.02
2019-01-24T22:07:59.700Z,96422.17
2019-01-24T22:10:29.971Z,96421.80
2019-01-24T22:12:59.089Z,96417.35
2019-01-24T22:15:29.302Z,96424.88
2019-01-24T22:17:58.525Z,96420.95
2019-01-24T22:20:27.614Z,96422.42
2019-01-24T22:22:56.716Z,96426.05
2019-01-24T22:25:31.306Z,96424.34
2019-01-24T22:28:00.720Z,96427.17
2019-01-24T22:30:35.141Z,96427.49
2019-01-24T22:33:04.546Z,96425.20
2019-01-24T22:35:33.632Z,96428.48
2019-01-24T22:38:02.761Z,96425.33
2019-01-24T22:40:31.843Z,96426.52
2019-01-24T22:43:00.958Z,96422.70
2019-01-24T22:45:30.150Z,96424.50
2019-01-24T22:47:59.260Z,96424.50
2019-01-24T22:50:28.352Z,96432.00
2019-01-24T22:52:57.458Z,96426.37
2019-01-24T22:55:26.561Z,96421.52
2019-01-24T22:57:55.677Z,96419.92
2019-01-24T23:00:48.974Z,96420.91
2019-01-24T23:03:21.442Z,96420.58
2019-01-24T23:05:50.737Z,96427.30
2019-01-24T23:08:19.948Z,96435.27
2019-01-24T23:10:49.032Z,96432.97
2019-01-24T23:13:20.430Z,96431.72
2019-01-24T23:15:49.534Z,96433.08
2019-01-24T23:18:18.645Z,96438.62
2019-01-24T23:20:47.740Z,96435.06
2019-01-24T23:23:16.845Z,96435.15
2019-01-24T23:25:45.950Z,96438.59
2019-01-24T23:28:15.384Z,96433.08
2019-01-24T23:30:44.469Z,96440.78
2019-01-24T23:33:13.573Z,96435.92
2019-01-24T23:35:42.763Z,96444.06
2019-01-24T23:38:11.889Z,96430.82
2019-01-24T23:40:41.001Z,96433.25
2019-01-24T23:43:10.201Z,96433.58
2019-01-24T23:45:39.320Z,96432.92
2019-01-24T23:48:08.425Z,96441.44
2019-01-24T23:50:37.544Z,96431.62
2019-01-24T23:53:06.636Z,96437.72
2019-01-24T23:55:35.746Z,96435.97
2019-01-24T23:58:04.933Z,96433.78
